Time;durP1;ratioP1;P1;durP2;ratioP2;P2;SDS_P1;SDS_P2;PMS_P1;PMS_P2;Temp;Humidity;BMP_temperature;BMP_pressure;BME280_temperature;BME280_humidity;BME280_pressure;Samples;Min_cycle;Max_cycle;Signal;HPM_P1;HPM_P2
2022/01/20 00:02:58;;;;;;;22.20;13.50;;;;;;;0.68;80.15;99180.43;207763;1319;139330;-66
2022/01/20 00:08:11;;;;;;;34.80;17.00;;;;;;;0.71;79.90;99165.28;207104;1317;139837;-67
2022/01/20 00:29:08;;;;;;;28.20;15.00;;;;;;;0.78;79.87;99125.58;207111;1318;139285;-65
2022/01/20 00:34:16;;;;;;;30.70;18.00;;;;;;;0.82;79.78;99122.40;207059;1319;140361;-66
2022/01/20 00:39:20;;;;;;;27.00;16.40;;;;;;;0.83;79.65;99116.42;208371;1319;138786;-66
2022/01/20 00:44:24;;;;;;;27.50;14.70;;;;;;;0.83;79.80;99110.98;208991;1319;139948;-72
2022/01/20 00:49:30;;;;;;;29.60;17.60;;;;;;;0.86;79.95;99101.08;208365;1319;139936;-70
2022/01/20 00:54:33;;;;;;;25.60;15.80;;;;;;;0.90;79.87;99112.05;209458;1316;140787;-68
2022/01/20 00:59:38;;;;;;;30.00;17.50;;;;;;;0.88;80.04;99105.82;208906;1319;140071;-72
2022/01/20 01:04:41;;;;;;;34.10;18.30;;;;;;;0.87;79.99;99103.59;208110;1319;139963;-70
2022/01/20 01:09:45;;;;;;;28.80;20.60;;;;;;;0.83;80.30;99099.72;209122;1317;139569;-70
2022/01/20 01:14:51;;;;;;;34.40;19.20;;;;;;;0.76;80.57;99101.02;209343;1319;141886;-68
2022/01/20 01:20:18;;;;;;;32.00;18.60;;;;;;;0.72;80.59;99101.09;208361;1317;140513;-68
2022/01/20 01:25:21;;;;;;;36.40;18.00;;;;;;;0.72;80.57;99089.07;208587;1319;139823;-70
2022/01/20 01:35:57;;;;;;;28.30;19.00;;;;;;;0.63;81.43;99065.33;208632;1316;139691;-71
2022/01/20 01:41:15;;;;;;;29.20;17.70;;;;;;;0.61;81.44;99048.65;207396;1316;139173;-71
2022/01/20 01:46:20;;;;;;;32.40;17.30;;;;;;;0.60;81.54;99040.48;207936;1315;141084;-70
2022/01/20 01:51:24;;;;;;;22.10;13.30;;;;;;;0.63;81.89;99038.54;207705;1315;140256;-68
2022/01/20 01:56:31;;;;;;;27.70;16.80;;;;;;;0.57;81.65;99027.28;208006;1316;139673;-65
2022/01/20 02:01:37;;;;;;;25.40;14.70;;;;;;;0.53;81.95;99026.92;208015;1316;139141;-66
2022/01/20 02:22:56;;;;;;;26.00;16.80;;;;;;;0.54;82.67;98996.80;207080;1315;139854;-67
2022/01/20 02:28:15;;;;;;;24.50;15.90;;;;;;;0.53;82.72;98990.52;208723;1316;140090;-71
2022/01/20 02:33:21;;;;;;;27.40;14.50;;;;;;;0.47;82.90;98977.05;207280;1315;141839;-68
2022/01/20 02:48:57;;;;;;;30.40;16.10;;;;;;;0.45;83.10;98948.14;209095;1316;139300;-69
2022/01/20 02:54:33;;;;;;;21.20;15.50;;;;;;;0.50;83.24;98949.23;208801;1315;140568;-71
2022/01/20 02:59:39;;;;;;;22.80;14.60;;;;;;;0.51;83.47;98940.36;208958;1316;139400;-69
2022/01/20 03:05:01;;;;;;;25.50;14.40;;;;;;;0.55;83.36;98928.86;209505;1316;140316;-70
2022/01/20 03:10:10;;;;;;;20.80;15.00;;;;;;;0.62;83.42;98926.55;209524;1316;141731;-71
2022/01/20 03:15:13;;;;;;;19.80;13.30;;;;;;;0.64;83.48;98910.48;209755;1316;139834;-67
2022/01/20 03:20:19;;;;;;;17.30;12.10;;;;;;;0.67;83.65;98901.48;209206;1316;141346;-70
2022/01/20 03:25:23;;;;;;;22.20;12.90;;;;;;;0.73;83.92;98898.19;207933;1315;140511;-69
2022/01/20 03:30:27;;;;;;;19.70;11.20;;;;;;;0.78;83.88;98893.95;208644;1316;140698;-68
2022/01/20 03:35:31;;;;;;;18.40;11.80;;;;;;;0.80;83.69;98888.75;208403;1316;150588;-69
2022/01/20 03:40:36;;;;;;;19.90;10.30;;;;;;;0.76;83.77;98897.28;208699;1316;139365;-69
2022/01/20 03:45:39;;;;;;;18.00;12.10;;;;;;;0.77;83.80;98895.55;208492;1316;140569;-69
2022/01/20 03:51:03;;;;;;;16.40;10.00;;;;;;;0.76;84.10;98897.01;208615;1316;140113;-67
2022/01/20 03:56:09;;;;;;;17.10;12.10;;;;;;;0.78;83.97;98895.57;207604;1316;139119;-68
2022/01/20 04:01:22;;;;;;;12.30;8.80;;;;;;;0.81;84.13;98890.95;208488;1316;140018;-67
2022/01/20 04:06:28;;;;;;;16.90;12.00;;;;;;;0.82;84.43;98883.92;207499;1316;141290;-69
2022/01/20 04:11:32;;;;;;;19.50;11.40;;;;;;;0.81;84.33;98877.91;208057;1315;141975;-68
2022/01/20 04:16:52;;;;;;;14.60;9.70;;;;;;;0.84;84.51;98883.45;208055;1316;139878;-68
2022/01/20 04:21:54;;;;;;;16.90;9.10;;;;;;;0.86;84.50;98887.59;208424;1315;139262;-70
2022/01/20 04:26:58;;;;;;;12.60;7.20;;;;;;;0.84;84.60;98889.42;208096;1316;139463;-67
2022/01/20 04:32:02;;;;;;;11.00;8.40;;;;;;;0.86;84.87;98889.45;207149;1315;141420;-67
2022/01/20 04:37:06;;;;;;;13.00;9.00;;;;;;;0.87;84.80;98903.50;207271;1315;140097;-67
2022/01/20 04:42:16;;;;;;;13.70;8.40;;;;;;;0.88;85.00;98901.69;208337;1316;139613;-67
2022/01/20 04:57:50;;;;;;;10.50;7.10;;;;;;;0.93;84.75;98888.63;208485;1315;139469;-68
2022/01/20 05:02:53;;;;;;;9.70;7.30;;;;;;;0.98;85.14;98890.74;209164;1316;139499;-68
2022/01/20 05:07:56;;;;;;;8.00;6.30;;;;;;;1.02;84.91;98899.83;209716;1316;139728;-69
2022/01/20 05:13:32;;;;;;;9.20;5.30;;;;;;;1.05;85.08;98896.00;208949;1316;139341;-67
2022/01/20 05:18:42;;;;;;;13.30;8.00;;;;;;;1.11;84.83;98884.12;209403;1315;140544;-71
2022/01/20 05:23:45;;;;;;;10.90;5.90;;;;;;;1.11;84.60;98883.89;209767;1315;141311;-70
2022/01/20 05:28:47;;;;;;;9.70;7.20;;;;;;;1.10;84.85;98874.42;209264;1316;140159;-70
2022/01/20 05:33:50;;;;;;;9.10;6.50;;;;;;;1.13;84.84;98876.59;207904;1315;140063;-70
2022/01/20 05:38:57;;;;;;;7.20;5.60;;;;;;;1.15;84.85;98869.33;207852;1315;140942;-69
2022/01/20 05:44:01;;;;;;;13.30;7.00;;;;;;;1.16;84.95;98870.30;207505;1316;140858;-68
2022/01/20 05:49:09;;;;;;;6.60;5.60;;;;;;;1.18;84.83;98870.52;208217;1316;143606;-68
2022/01/20 05:54:16;;;;;;;6.40;4.90;;;;;;;1.12;84.44;98865.08;208564;1314;140983;-68
2022/01/20 05:59:23;;;;;;;3.00;2.60;;;;;;;1.03;83.97;98859.98;208527;1316;140101;-68
2022/01/20 06:04:26;;;;;;;3.40;2.30;;;;;;;0.95;83.66;98864.21;207751;1316;139741;-68
2022/01/20 06:09:28;;;;;;;4.90;2.10;;;;;;;0.79;83.24;98869.75;207499;1314;139596;-68
2022/01/20 06:14:32;;;;;;;2.00;1.40;;;;;;;0.67;83.38;98873.09;207698;1314;140281;-66
2022/01/20 06:19:35;;;;;;;3.80;2.20;;;;;;;0.57;83.17;98889.11;207793;1317;138839;-69
2022/01/20 06:24:41;;;;;;;5.40;1.90;;;;;;;0.52;83.32;98902.73;208858;1314;140191;-68
2022/01/20 06:29:44;;;;;;;1.70;1.40;;;;;;;0.48;82.95;98897.42;208267;1314;139871;-68
2022/01/20 06:34:51;;;;;;;3.50;2.70;;;;;;;0.40;82.85;98889.48;207715;1315;139599;-67
2022/01/20 06:39:55;;;;;;;3.50;1.00;;;;;;;0.33;82.56;98883.00;207160;1316;139024;-67
2022/01/20 06:45:06;;;;;;;5.60;1.90;;;;;;;0.30;82.29;98876.11;207536;1317;140186;-67
2022/01/20 06:50:11;;;;;;;2.00;1.70;;;;;;;0.26;82.53;98875.84;207594;1316;139259;-68
2022/01/20 06:55:18;;;;;;;1.90;1.00;;;;;;;0.20;82.05;98875.59;207979;1315;138891;-68
2022/01/20 07:00:24;;;;;;;12.00;2.60;;;;;;;0.16;81.96;98876.00;207890;1316;139221;-68
2022/01/20 07:05:30;;;;;;;8.10;1.80;;;;;;;0.11;81.94;98873.56;208710;1317;142209;-67
2022/01/20 07:10:33;;;;;;;10.80;3.10;;;;;;;0.11;81.89;98883.12;207484;1316;139909;-66
2022/01/20 07:15:37;;;;;;;7.10;2.10;;;;;;;0.18;81.94;98886.86;208483;1316;141606;-67
2022/01/20 07:20:39;;;;;;;4.20;1.70;;;;;;;0.26;81.90;98887.20;209661;1316;141194;-68
2022/01/20 07:25:43;;;;;;;6.50;2.90;;;;;;;0.42;81.75;98878.48;209716;1316;139261;-72
2022/01/20 07:30:45;;;;;;;9.50;2.50;;;;;;;0.58;81.65;98881.67;208983;1315;140667;-69
2022/01/20 07:35:49;;;;;;;7.80;2.20;;;;;;;0.67;81.54;98872.27;209112;1317;140620;-70
2022/01/20 07:40:53;;;;;;;8.10;2.10;;;;;;;0.73;81.35;98865.75;208537;1316;139506;-70
2022/01/20 07:45:55;;;;;;;6.30;2.40;;;;;;;0.80;81.43;98860.35;208362;1316;140987;-71
2022/01/20 07:51:06;;;;;;;12.80;2.60;;;;;;;0.82;81.36;98849.75;209016;1316;161762;-70
2022/01/20 07:56:11;;;;;;;7.20;2.00;;;;;;;0.91;80.92;98841.67;208724;1316;140061;-71
2022/01/20 08:01:17;;;;;;;6.70;1.70;;;;;;;1.07;80.77;98830.29;208434;1315;142546;-70
2022/01/20 08:06:22;;;;;;;5.60;2.30;;;;;;;1.14;80.79;98840.82;207782;1316;140329;-70
2022/01/20 08:11:25;;;;;;;5.70;2.50;;;;;;;1.14;80.79;98843.27;207536;1315;141018;-70
2022/01/20 08:16:30;;;;;;;5.50;2.20;;;;;;;1.07;80.51;98861.81;207747;1316;141296;-70
2022/01/20 08:21:34;;;;;;;1.30;0.70;;;;;;;0.81;81.26;98952.57;207346;1316;141425;-69
2022/01/20 08:26:37;;;;;;;2.00;0.80;;;;;;;0.19;82.12;98955.68;207632;1316;140183;-67
2022/01/20 08:31:41;;;;;;;0.60;0.50;;;;;;;-0.28;82.96;98960.39;207438;1316;149930;-67
2022/01/20 08:36:45;;;;;;;1.60;1.20;;;;;;;-0.76;86.33;98944.20;207581;1316;140130;-67
2022/01/20 08:41:48;;;;;;;1.20;0.50;;;;;;;-0.94;87.23;98923.48;207138;1316;140749;-66
2022/01/20 08:46:52;;;;;;;1.60;1.20;;;;;;;-0.90;87.42;98907.86;207742;1316;142263;-68
2022/01/20 08:51:56;;;;;;;1.70;0.80;;;;;;;-0.87;87.61;98884.52;207342;1315;141340;-67
2022/01/20 08:56:59;;;;;;;2.10;0.70;;;;;;;-0.88;87.11;98871.83;207942;1315;140316;-67
2022/01/20 09:02:03;;;;;;;1.00;0.60;;;;;;;-0.76;86.79;98866.48;208478;1316;140386;-67
2022/01/20 09:07:09;;;;;;;1.40;0.80;;;;;;;-0.58;86.60;98855.92;207849;1315;141933;-68
2022/01/20 09:15:27;;;;;;;5.50;2.10;;;;;;;-0.48;86.16;98838.11;208430;1312;142354;-68
2022/01/20 09:17:39;;;;;;;3.90;0.80;;;;;;;-0.43;85.67;98856.21;207499;1316;140096;-68
2022/01/20 09:22:41;;;;;;;2.30;0.70;;;;;;;-0.44;85.42;98872.36;208564;1316;141903;-67
2022/01/20 09:27:43;;;;;;;2.10;0.70;;;;;;;-0.42;85.00;98868.43;207554;1316;141282;-68
2022/01/20 09:33:14;;;;;;;3.60;1.10;;;;;;;-0.29;84.69;98866.38;209441;1316;140416;-67
2022/01/20 09:38:28;;;;;;;2.70;1.40;;;;;;;-0.15;84.32;98868.86;208015;1315;140237;-67
2022/01/20 09:43:33;;;;;;;4.00;1.60;;;;;;;0.01;83.48;98869.40;209667;1316;141494;-68
2022/01/20 09:48:40;;;;;;;3.80;1.30;;;;;;;0.15;82.68;98866.35;209718;1316;139744;-68
2022/01/20 09:53:43;;;;;;;2.80;1.50;;;;;;;0.28;82.20;98879.97;207686;1316;139018;-67
2022/01/20 09:58:47;;;;;;;2.40;1.70;;;;;;;0.35;81.59;98872.14;208118;1316;141438;-69
2022/01/20 10:03:51;;;;;;;4.90;2.10;;;;;;;0.37;80.98;98867.39;208248;1316;140076;-68
2022/01/20 10:09:05;;;;;;;3.90;1.80;;;;;;;0.41;81.00;98861.81;207653;1317;140334;-68
2022/01/20 10:14:25;;;;;;;;;;;;;;;0.44;80.42;98858.38;208242;1316;139670;-66
2022/01/20 10:19:30;;;;;;;7.40;1.90;;;;;;;0.70;80.31;98847.98;208351;1316;125294;-66
2022/01/20 10:24:34;;;;;;;4.60;2.10;;;;;;;1.13;79.95;98845.27;207331;1315;138690;-68
2022/01/20 10:29:37;;;;;;;3.30;2.00;;;;;;;1.48;79.14;98844.84;207434;1315;138783;-68
2022/01/20 10:35:05;;;;;;;7.80;1.80;;;;;;;1.67;78.42;98846.98;207869;1316;139883;-69
2022/01/20 10:40:16;;;;;;;9.10;3.80;;;;;;;1.64;77.93;98850.41;207865;1316;140323;-68
2022/01/20 10:45:23;;;;;;;2.80;1.60;;;;;;;1.42;77.40;98839.45;207635;1315;138829;-69
2022/01/20 10:50:27;;;;;;;5.50;1.90;;;;;;;1.39;77.48;98846.30;207662;1316;139675;-67
2022/01/20 10:55:35;;;;;;;9.00;2.40;;;;;;;1.38;77.26;98850.42;207442;1316;139433;-67
2022/01/20 11:00:54;;;;;;;3.40;2.20;;;;;;;1.37;76.95;98856.32;208053;1316;140063;-68
2022/01/20 11:06:02;;;;;;;3.00;2.40;;;;;;;1.38;76.80;98860.31;207789;1316;139471;-68
2022/01/20 11:11:07;;;;;;;8.00;3.60;;;;;;;1.32;76.42;98863.33;208062;1315;142807;-67
2022/01/20 11:16:10;;;;;;;4.10;1.60;;;;;;;1.24;76.20;98865.08;208130;1316;139099;-67
2022/01/20 11:21:24;;;;;;;13.40;2.90;;;;;;;1.24;76.09;98858.36;208807;1316;139758;-69
2022/01/20 11:26:28;;;;;;;8.70;3.70;;;;;;;1.19;76.05;98859.69;208274;1314;141318;-68
2022/01/20 11:31:41;;;;;;;4.90;2.40;;;;;;;1.22;76.42;98865.80;208985;1316;139455;-68
2022/01/20 11:37:09;;;;;;;4.30;2.50;;;;;;;1.52;76.10;98865.95;208249;1316;139840;-69
2022/01/20 11:42:25;;;;;;;2.70;1.80;;;;;;;1.76;75.53;98865.88;209359;1316;140382;-72
2022/01/20 11:47:35;;;;;;;4.60;2.00;;;;;;;1.57;74.64;98876.02;209581;1316;140129;-71
2022/01/20 11:52:42;;;;;;;4.60;1.70;;;;;;;1.34;74.42;98891.77;208617;1316;139184;-72
2022/01/20 11:58:30;;;;;;;3.50;1.40;;;;;;;1.18;74.70;98896.84;208840;1316;140881;-70
2022/01/20 12:03:42;;;;;;;5.80;2.80;;;;;;;1.02;74.58;98900.42;208648;1316;139150;-68
2022/01/20 12:09:14;;;;;;;4.20;1.50;;;;;;;0.88;73.99;98896.73;208575;1315;140324;-69
2022/01/20 12:14:38;;;;;;;3.30;2.60;;;;;;;0.90;73.65;98888.66;208736;1315;140295;-69
2022/01/20 12:20:02;;;;;;;3.40;1.90;;;;;;;0.98;73.46;98892.52;208782;1314;139657;-68
2022/01/20 12:25:06;;;;;;;2.60;1.70;;;;;;;1.21;73.34;98895.52;208373;1315;139390;-70
2022/01/20 12:30:28;;;;;;;4.20;1.60;;;;;;;1.43;73.24;98895.05;208561;1315;139092;-69
2022/01/20 12:40:24;;;;;;;6.30;1.60;;;;;;;1.88;71.79;98882.67;207584;1356;686414;-70
2022/01/20 13:02:38;;;;;;;6.20;1.60;;;;;;;1.21;71.09;98907.59;207505;1353;686365;-68
2022/01/20 13:07:50;;;;;;;3.60;2.00;;;;;;;0.76;71.25;98919.56;206429;1327;138931;-68
2022/01/20 13:13:05;;;;;;;5.50;2.60;;;;;;;0.46;71.96;98930.55;206066;1324;541168;-68
2022/01/20 13:18:13;;;;;;;4.30;2.40;;;;;;;0.17;72.88;98927.28;205970;1324;140359;-68
2022/01/20 13:28:27;;;;;;;4.40;2.90;;;;;;;0.05;73.12;98938.04;205514;1324;139318;-68
2022/01/20 13:33:32;;;;;;;3.90;2.70;;;;;;;0.03;73.38;98930.73;205548;1323;138803;-67
2022/01/20 13:38:41;;;;;;;7.40;2.90;;;;;;;0.06;73.78;98930.55;206157;1325;138851;-68
2022/01/20 13:49:21;;;;;;;4.70;2.00;;;;;;;-0.15;73.71;98939.91;205446;1325;139570;-68
2022/01/20 13:54:55;;;;;;;4.70;1.70;;;;;;;-0.14;73.56;98937.54;205866;1324;139579;-68
2022/01/20 14:00:23;;;;;;;21.60;2.50;;;;;;;-0.22;73.76;98919.64;206195;1323;139669;-71
2022/01/20 14:05:49;;;;;;;6.40;2.00;;;;;;;-0.34;74.42;98925.85;207585;1323;139023;-66
2022/01/20 14:10:53;;;;;;;11.50;6.40;;;;;;;-0.38;74.41;98932.02;206747;1325;139800;-67
2022/01/20 14:16:08;;;;;;;7.30;3.80;;;;;;;-0.54;75.21;98948.68;207543;1323;139869;-67
2022/01/20 14:21:27;;;;;;;4.40;3.70;;;;;;;-0.70;76.23;98968.73;207741;1325;140577;-69
2022/01/20 14:26:43;;;;;;;6.10;2.50;;;;;;;-0.85;76.18;98946.73;206862;1324;139829;-71
2022/01/20 14:31:45;;;;;;;10.80;4.00;;;;;;;-0.95;76.48;98958.13;207154;1324;138746;-70
2022/01/20 14:36:54;;;;;;;2.90;2.70;;;;;;;-1.03;76.51;98963.00;207347;1324;139245;-77
2022/01/20 14:41:58;;;;;;;9.10;3.80;;;;;;;-1.14;76.66;98973.17;207626;1324;139228;-76
2022/01/20 14:47:15;;;;;;;11.20;3.30;;;;;;;-1.13;76.64;98970.46;207165;1325;139863;-73
2022/01/20 14:52:19;;;;;;;6.30;2.40;;;;;;;-1.20;76.70;98974.33;206677;1325;139052;-69
2022/01/20 14:57:24;;;;;;;6.50;2.70;;;;;;;-1.28;76.93;98982.94;206882;1324;138919;-71
2022/01/20 15:02:36;;;;;;;9.00;3.60;;;;;;;-1.30;77.18;98989.55;207529;1324;139359;-71
2022/01/20 15:07:39;;;;;;;11.50;4.20;;;;;;;-1.27;77.58;98995.86;206265;1325;141224;-72
2022/01/20 15:12:46;;;;;;;7.40;4.70;;;;;;;-1.32;77.75;98996.30;205846;1324;139492;-67
2022/01/20 15:17:52;;;;;;;7.40;3.30;;;;;;;-1.43;77.83;98994.35;205422;1324;139499;-68
2022/01/20 15:23:15;;;;;;;2.90;2.20;;;;;;;-1.50;78.10;98998.02;206308;1323;138556;-68
2022/01/20 15:28:21;;;;;;;7.30;3.00;;;;;;;-1.58;78.31;99000.31;206099;1324;138652;-68
2022/01/20 15:33:24;;;;;;;8.90;4.70;;;;;;;-1.64;78.22;99004.17;206397;1322;140411;-72
2022/01/20 15:38:28;;;;;;;12.00;6.60;;;;;;;-1.62;78.54;99013.14;206441;1324;138542;-75
2022/01/20 15:43:32;;;;;;;8.30;4.10;;;;;;;-1.55;78.58;99007.52;205354;1324;140198;-74
2022/01/20 15:48:39;;;;;;;5.20;2.60;;;;;;;-1.53;78.56;99009.23;205359;1324;140616;-73
2022/01/20 15:53:42;;;;;;;7.00;2.60;;;;;;;-1.50;78.65;99012.29;205777;1320;139016;-71
2022/01/20 15:58:46;;;;;;;3.40;2.10;;;;;;;-1.50;78.46;99023.02;205572;1322;139667;-71
2022/01/20 16:03:51;;;;;;;6.20;2.90;;;;;;;-1.48;78.40;99028.36;205321;1324;139426;-72
2022/01/20 16:08:59;;;;;;;6.90;3.10;;;;;;;-1.49;78.49;99033.94;206307;1324;140803;-73
2022/01/20 16:14:06;;;;;;;4.60;3.00;;;;;;;-1.47;78.36;99034.17;205466;1324;139921;-71
2022/01/20 16:19:09;;;;;;;6.70;3.20;;;;;;;-1.43;78.38;99037.06;206292;1323;139881;-72
2022/01/20 16:24:13;;;;;;;5.40;3.00;;;;;;;-1.39;78.39;99049.69;207128;1324;140873;-73
2022/01/20 16:29:23;;;;;;;13.70;4.50;;;;;;;-1.32;78.36;99056.08;206721;1323;140939;-72
2022/01/20 16:34:26;;;;;;;14.20;4.70;;;;;;;-1.23;78.18;99059.34;205446;1323;141456;-67
2022/01/20 16:39:37;;;;;;;25.20;7.90;;;;;;;-1.20;78.28;99073.48;207211;1323;139854;-72
2022/01/20 16:45:13;;;;;;;16.10;5.10;;;;;;;-1.17;78.38;99082.16;207987;1325;140050;-73
2022/01/20 16:50:20;;;;;;;18.00;5.90;;;;;;;-1.08;78.38;99078.40;207710;1321;140245;-75
2022/01/20 16:55:23;;;;;;;9.50;3.80;;;;;;;-1.06;78.62;99088.91;207266;1321;140479;-74
2022/01/20 17:00:40;;;;;;;7.60;2.80;;;;;;;-1.09;78.76;99092.72;207012;1324;139984;-76
2022/01/20 17:05:52;;;;;;;1.80;1.60;;;;;;;-1.08;78.85;99098.54;206396;1324;141071;-74
2022/01/20 17:11:02;;;;;;;7.70;3.00;;;;;;;-1.05;78.79;99118.66;207045;1323;138888;-71
2022/01/20 17:16:10;;;;;;;8.00;2.00;;;;;;;-1.07;78.73;99118.19;206667;1323;139583;-71
2022/01/20 17:21:17;;;;;;;8.60;2.90;;;;;;;-1.10;78.34;99121.44;206878;1324;138743;-68
2022/01/20 17:26:21;;;;;;;10.20;3.60;;;;;;;-1.08;78.27;99128.91;206455;1323;139940;-70
2022/01/20 17:31:26;;;;;;;5.60;2.30;;;;;;;-1.07;78.12;99125.96;207211;1325;139495;-70
2022/01/20 17:36:30;;;;;;;6.00;1.80;;;;;;;-1.09;77.76;99135.61;205430;1324;140109;-69
2022/01/20 17:41:37;;;;;;;5.00;2.20;;;;;;;-1.11;77.52;99144.42;206673;1323;140082;-68
2022/01/20 17:46:44;;;;;;;3.50;1.40;;;;;;;-1.13;77.13;99149.38;207166;1321;139454;-67
2022/01/20 17:51:57;;;;;;;6.40;2.20;;;;;;;-1.24;76.99;99152.36;206957;1321;138753;-67
2022/01/20 17:57:01;;;;;;;4.50;2.00;;;;;;;-1.33;76.82;99159.00;207874;1320;139064;-73
2022/01/20 18:02:06;;;;;;;3.60;2.10;;;;;;;-1.34;76.79;99173.81;207808;1320;139890;-73
2022/01/20 18:07:22;;;;;;;4.50;2.10;;;;;;;-1.37;76.77;99191.70;207492;1321;138848;-73
2022/01/20 18:12:36;;;;;;;6.20;2.20;;;;;;;-1.44;76.76;99201.70;207045;1321;139646;-72
2022/01/20 18:17:42;;;;;;;1.90;1.60;;;;;;;-1.50;76.54;99206.52;206850;1321;150076;-71
2022/01/20 18:22:53;;;;;;;8.70;2.40;;;;;;;-1.52;76.52;99215.12;206625;1321;139053;-69
2022/01/20 18:28:00;;;;;;;6.80;2.50;;;;;;;-1.56;76.43;99220.29;207381;1323;139682;-69
2022/01/20 18:33:12;;;;;;;5.20;2.50;;;;;;;-1.62;76.48;99229.91;208144;1321;139697;-70
2022/01/20 18:38:18;;;;;;;15.20;3.80;;;;;;;-1.66;76.32;99238.88;206339;1321;140079;-72
2022/01/20 18:43:30;;;;;;;10.90;3.30;;;;;;;-1.68;76.25;99247.89;209028;1319;139929;-74
2022/01/20 18:48:34;;;;;;;5.00;2.40;;;;;;;-1.71;76.10;99251.42;208125;1318;139938;-75
2022/01/20 18:53:40;;;;;;;7.80;3.20;;;;;;;-1.76;76.25;99256.49;208593;1319;140955;-74
2022/01/20 18:58:51;;;;;;;4.50;2.20;;;;;;;-1.74;76.35;99257.24;208382;1320;139661;-76
2022/01/20 19:03:57;;;;;;;5.80;2.40;;;;;;;-1.67;76.49;99259.71;208212;1320;139604;-76
2022/01/20 19:09:00;;;;;;;7.50;3.40;;;;;;;-1.66;76.31;99257.20;207041;1317;139730;-75
2022/01/20 19:14:09;;;;;;;6.40;3.60;;;;;;;-1.68;76.24;99260.70;207487;1318;141050;-70
2022/01/20 19:19:12;;;;;;;;;;;;;;;-1.71;76.19;99258.12;208064;1318;141203;-73
2022/01/20 19:24:20;;;;;;;7.60;2.90;;;;;;;-1.79;76.42;99257.65;207693;1318;125352;-68
2022/01/20 19:29:34;;;;;;;14.30;5.90;;;;;;;-1.85;76.41;99266.23;207360;1318;140121;-68
2022/01/20 19:34:42;;;;;;;11.20;3.80;;;;;;;-1.94;76.43;99279.67;207065;1318;141395;-71
2022/01/20 19:39:52;;;;;;;7.70;2.90;;;;;;;-2.01;76.34;99284.48;207557;1319;140088;-71
2022/01/20 19:44:55;;;;;;;11.50;3.60;;;;;;;-2.06;76.38;99288.77;207283;1320;140482;-69
2022/01/20 19:49:58;;;;;;;5.80;2.70;;;;;;;-2.11;76.53;99296.61;206987;1318;141768;-72
2022/01/20 19:55:07;;;;;;;8.10;3.00;;;;;;;-2.21;76.70;99300.72;207217;1318;140240;-68
2022/01/20 20:00:14;;;;;;;11.60;3.70;;;;;;;-2.27;76.66;99312.66;207961;1318;246430;-73
2022/01/20 20:05:18;;;;;;;14.00;5.60;;;;;;;-2.30;76.53;99314.97;207296;1318;140343;-69
2022/01/20 20:10:21;;;;;;;6.20;2.90;;;;;;;-2.32;76.62;99315.33;207733;1318;140320;-72
2022/01/20 20:15:26;;;;;;;10.50;3.90;;;;;;;-2.36;76.78;99319.75;206970;1321;139299;-67
2022/01/20 20:20:33;;;;;;;17.10;4.80;;;;;;;-2.42;76.83;99318.96;207016;1320;138759;-69
2022/01/20 20:25:37;;;;;;;17.80;5.70;;;;;;;-2.43;76.90;99326.38;207677;1319;140345;-70
2022/01/20 20:30:41;;;;;;;16.60;5.20;;;;;;;-2.48;76.71;99333.54;207634;1320;139893;-69
2022/01/20 20:35:49;;;;;;;16.10;4.80;;;;;;;-2.51;77.10;99336.30;208800;1319;140016;-68
2022/01/20 20:40:58;;;;;;;13.60;4.70;;;;;;;-2.52;77.01;99334.27;208247;1318;139993;-69
2022/01/20 20:46:00;;;;;;;14.20;5.10;;;;;;;-2.51;76.92;99339.76;208012;1319;140182;-71
2022/01/20 20:51:04;;;;;;;12.40;4.00;;;;;;;-2.53;77.12;99344.35;207791;1319;151693;-74
2022/01/20 20:56:08;;;;;;;5.40;2.60;;;;;;;-2.62;77.04;99350.33;206906;1320;139959;-73
2022/01/20 21:01:11;;;;;;;12.20;4.20;;;;;;;-2.67;77.03;99358.85;209460;1319;139154;-80
2022/01/20 21:06:18;;;;;;;10.00;3.90;;;;;;;-2.67;77.17;99361.81;207924;1319;139978;-84
2022/01/20 21:11:22;;;;;;;12.30;5.20;;;;;;;-2.68;77.14;99373.94;208360;1319;139528;-83
2022/01/20 21:16:30;;;;;;;11.70;4.80;;;;;;;-2.78;76.99;99374.91;207555;1324;533292;-82
2022/01/20 21:21:36;;;;;;;9.40;3.10;;;;;;;-2.81;76.99;99377.58;208321;1320;140355;-79
2022/01/20 21:26:45;;;;;;;12.40;4.00;;;;;;;-2.80;77.03;99380.02;208608;1318;139512;-80
2022/01/20 21:31:51;;;;;;;9.40;4.80;;;;;;;-2.82;76.94;99389.51;207584;1320;138963;-79
2022/01/20 21:36:55;;;;;;;10.90;3.40;;;;;;;-2.87;77.00;99393.29;208280;1320;139435;-72
2022/01/20 21:41:59;;;;;;;14.40;5.60;;;;;;;-2.93;77.04;99395.96;207919;1320;140791;-69
2022/01/20 21:47:04;;;;;;;15.00;4.00;;;;;;;-2.97;77.17;99397.25;207352;1317;139746;-69
2022/01/20 21:52:09;;;;;;;8.80;3.90;;;;;;;-3.04;77.14;99390.98;207230;1320;139259;-67
2022/01/20 21:57:13;;;;;;;9.50;3.30;;;;;;;-3.11;77.16;99390.91;207189;1320;139222;-68
2022/01/20 22:02:16;;;;;;;6.70;3.10;;;;;;;-3.13;77.34;99398.14;207303;1319;139734;-67
2022/01/20 22:07:23;;;;;;;6.90;3.10;;;;;;;-3.12;77.15;99402.94;207220;1320;221364;-68
2022/01/20 22:12:35;;;;;;;6.20;3.40;;;;;;;-3.14;77.54;99406.84;207576;1319;139929;-74
2022/01/20 22:17:38;;;;;;;9.80;3.80;;;;;;;-3.22;77.44;99415.23;207548;1317;138955;-72
2022/01/20 22:22:54;;;;;;;5.30;3.00;;;;;;;-3.26;77.39;99426.66;207059;1317;138822;-70
2022/01/20 22:27:59;;;;;;;3.10;2.40;;;;;;;-3.26;77.58;99430.14;208234;1315;139863;-66
2022/01/20 22:33:06;;;;;;;6.90;3.40;;;;;;;-3.30;77.51;99439.92;207795;1316;139110;-64
2022/01/20 22:38:26;;;;;;;7.20;3.30;;;;;;;-3.35;77.52;99450.88;207867;1317;140727;-65
2022/01/20 22:43:31;;;;;;;5.50;3.00;;;;;;;-3.37;77.79;99453.13;207998;1316;139615;-66
2022/01/20 22:49:10;;;;;;;6.10;1.70;;;;;;;-3.36;77.59;99452.85;207904;1316;140422;-67
2022/01/20 22:54:17;;;;;;;8.30;3.00;;;;;;;-3.41;77.70;99452.48;208317;1315;139475;-73
2022/01/20 22:59:28;;;;;;;7.00;3.40;;;;;;;-3.45;77.81;99456.46;209202;1316;139657;-71
2022/01/20 23:04:33;;;;;;;6.50;2.00;;;;;;;-3.47;77.65;99461.59;207904;1316;140723;-71
2022/01/20 23:09:49;;;;;;;;;;;;;;;;;;;;;
2022/01/20 23:15:02;;;;;;;10.80;3.90;;;;;;;-3.46;77.70;99468.92;209402;1317;140431;-68
2022/01/20 23:25:30;;;;;;;4.70;2.70;;;;;;;-3.46;77.74;99485.27;207534;1317;139833;-70
2022/01/20 23:30:45;;;;;;;;;;;;;;;;;;;;;
2022/01/20 23:35:59;;;;;;;4.60;2.30;;;;;;;-3.43;77.71;99489.51;207862;1316;139377;-74
2022/01/20 23:51:31;;;;;;;6.40;3.40;;;;;;;-3.52;77.74;99511.02;207412;1316;140733;-68
2022/01/20 23:56:36;;;;;;;6.10;3.60;;;;;;;-3.54;77.72;99516.30;207965;1316;141065;-68
